sensor_id;sensor_type;location;lat;lon;timestamp;pressure;altitude;pressure_sealevel;temperature
73685;BMP280;61985;51.070;14.064;2024-01-15T00:32:40;96697.09;;;0.19
73685;BMP280;61985;51.070;14.064;2024-01-15T05:32:25;96554.72;;;-1.08
73685;BMP280;61985;51.070;14.064;2024-01-15T05:39:03;96562.59;;;-1.00
73685;BMP280;61985;51.070;14.064;2024-01-15T06:01:21;96578.06;;;-0.99
73685;BMP280;61985;51.070;14.064;2024-01-15T06:11:06;96567.88;;;-1.00
73685;BMP280;61985;51.070;14.064;2024-01-15T06:57:23;96556.88;;;-0.95
73685;BMP280;61985;51.070;14.064;2024-01-15T07:00:25;96549.00;;;-0.99
73685;BMP280;61985;51.070;14.064;2024-01-15T07:03:09;96560.63;;;-0.93
73685;BMP280;61985;51.070;14.064;2024-01-15T07:16:22;96557.91;;;-0.82
73685;BMP280;61985;51.070;14.064;2024-01-15T07:23:00;96557.56;;;-0.87
73685;BMP280;61985;51.070;14.064;2024-01-15T07:26:11;96551.50;;;-0.84
73685;BMP280;61985;51.070;14.064;2024-01-15T07:29:00;96575.28;;;-0.84
73685;BMP280;61985;51.070;14.064;2024-01-15T07:35:34;96581.41;;;-0.91
73685;BMP280;61985;51.070;14.064;2024-01-15T07:38:24;96591.66;;;-1.00
73685;BMP280;61985;51.070;14.064;2024-01-15T07:41:08;96596.22;;;-1.04
73685;BMP280;61985;51.070;14.064;2024-01-15T07:43:38;96584.88;;;-1.01
73685;BMP280;61985;51.070;14.064;2024-01-15T07:46:04;96601.50;;;-1.04
73685;BMP280;61985;51.070;14.064;2024-01-15T07:48:32;96599.25;;;-1.06
73685;BMP280;61985;51.070;14.064;2024-01-15T07:51:07;96588.25;;;-0.97
73685;BMP280;61985;51.070;14.064;2024-01-15T07:53:34;96584.44;;;-0.93
73685;BMP280;61985;51.070;14.064;2024-01-15T07:56:11;96591.97;;;-0.91
73685;BMP280;61985;51.070;14.064;2024-01-15T07:58:45;96574.56;;;-0.88
73685;BMP280;61985;51.070;14.064;2024-01-15T08:01:58;96591.16;;;-0.84
73685;BMP280;61985;51.070;14.064;2024-01-15T08:14:04;96577.47;;;-0.76
73685;BMP280;61985;51.070;14.064;2024-01-15T08:16:50;96582.72;;;-0.72
73685;BMP280;61985;51.070;14.064;2024-01-15T08:22:42;96595.19;;;-0.73
73685;BMP280;61985;51.070;14.064;2024-01-15T08:25:49;96605.72;;;-0.69
73685;BMP280;61985;51.070;14.064;2024-01-15T08:28:39;96596.69;;;-0.72
73685;BMP280;61985;51.070;14.064;2024-01-15T08:31:53;96606.13;;;-0.70
73685;BMP280;61985;51.070;14.064;2024-01-15T08:34:58;96604.63;;;-0.72
73685;BMP280;61985;51.070;14.064;2024-01-15T08:41:42;96600.78;;;-0.63
73685;BMP280;61985;51.070;14.064;2024-01-15T08:44:34;96599.25;;;-0.64
73685;BMP280;61985;51.070;14.064;2024-01-15T08:47:35;96606.03;;;-0.60
73685;BMP280;61985;51.070;14.064;2024-01-15T08:50:08;96610.56;;;-0.60
73685;BMP280;61985;51.070;14.064;2024-01-15T08:53:35;96599.19;;;-0.57
73685;BMP280;61985;51.070;14.064;2024-01-15T09:03:12;96603.28;;;-0.49
73685;BMP280;61985;51.070;14.064;2024-01-15T09:06:19;96584.69;;;-0.42
73685;BMP280;61985;51.070;14.064;2024-01-15T09:09:37;96582.72;;;-0.38
73685;BMP280;61985;51.070;14.064;2024-01-15T09:12:50;96598.59;;;-0.38
73685;BMP280;61985;51.070;14.064;2024-01-15T09:44:49;96619.19;;;0.16
73685;BMP280;61985;51.070;14.064;2024-01-15T09:47:27;96626.13;;;0.07
73685;BMP280;61985;51.070;14.064;2024-01-15T09:50:15;96622.56;;;0.17
73685;BMP280;61985;51.070;14.064;2024-01-15T09:56:55;96612.94;;;0.30
73685;BMP280;61985;51.070;14.064;2024-01-15T10:00:01;96598.41;;;0.39
73685;BMP280;61985;51.070;14.064;2024-01-15T10:03:06;96596.81;;;0.45
73685;BMP280;61985;51.070;14.064;2024-01-15T10:05:53;96594.88;;;0.49
73685;BMP280;61985;51.070;14.064;2024-01-15T10:08:22;96595.28;;;0.47
73685;BMP280;61985;51.070;14.064;2024-01-15T10:10:53;96602.03;;;0.52
73685;BMP280;61985;51.070;14.064;2024-01-15T10:13:22;96593.59;;;0.61
73685;BMP280;61985;51.070;14.064;2024-01-15T10:15:55;96592.06;;;0.60
73685;BMP280;61985;51.070;14.064;2024-01-15T10:21:54;96592.63;;;0.75
73685;BMP280;61985;51.070;14.064;2024-01-15T10:24:39;96599.06;;;0.74
73685;BMP280;61985;51.070;14.064;2024-01-15T10:27:12;96594.22;;;0.68
73685;BMP280;61985;51.070;14.064;2024-01-15T10:29:38;96594.63;;;0.67
73685;BMP280;61985;51.070;14.064;2024-01-15T10:32:16;96606.16;;;0.80
73685;BMP280;61985;51.070;14.064;2024-01-15T10:34:52;96590.84;;;0.92
73685;BMP280;61985;51.070;14.064;2024-01-15T10:37:20;96597.91;;;0.98
73685;BMP280;61985;51.070;14.064;2024-01-15T10:39:51;96586.38;;;0.85
73685;BMP280;61985;51.070;14.064;2024-01-15T10:42:24;96597.44;;;0.80
73685;BMP280;61985;51.070;14.064;2024-01-15T10:44:53;96603.25;;;0.71
73685;BMP280;61985;51.070;14.064;2024-01-15T10:47:23;96580.97;;;0.68
73685;BMP280;61985;51.070;14.064;2024-01-15T10:49:55;96582.13;;;0.67
73685;BMP280;61985;51.070;14.064;2024-01-15T10:52:28;96580.44;;;0.77
73685;BMP280;61985;51.070;14.064;2024-01-15T10:54:56;96574.50;;;0.69
73685;BMP280;61985;51.070;14.064;2024-01-15T10:57:26;96582.81;;;0.71
73685;BMP280;61985;51.070;14.064;2024-01-15T11:00:02;96577.47;;;0.75
73685;BMP280;61985;51.070;14.064;2024-01-15T11:02:34;96562.09;;;0.90
73685;BMP280;61985;51.070;14.064;2024-01-15T11:05:19;96580.03;;;0.79
73685;BMP280;61985;51.070;14.064;2024-01-15T11:07:58;96572.91;;;0.76
73685;BMP280;61985;51.070;14.064;2024-01-15T11:10:46;96578.97;;;0.76
73685;BMP280;61985;51.070;14.064;2024-01-15T11:16:54;96576.81;;;0.67
73685;BMP280;61985;51.070;14.064;2024-01-15T11:22:58;96561.78;;;0.61
73685;BMP280;61985;51.070;14.064;2024-01-15T11:35:47;96575.72;;;0.65
73685;BMP280;61985;51.070;14.064;2024-01-15T11:46:04;96560.53;;;0.42
73685;BMP280;61985;51.070;14.064;2024-01-15T12:03:11;96536.75;;;1.09
73685;BMP280;61985;51.070;14.064;2024-01-15T12:05:57;96545.38;;;0.93
73685;BMP280;61985;51.070;14.064;2024-01-15T12:09:05;96563.53;;;0.95
73685;BMP280;61985;51.070;14.064;2024-01-15T12:12:07;96549.09;;;0.96
73685;BMP280;61985;51.070;14.064;2024-01-15T12:14:47;96547.31;;;0.89
73685;BMP280;61985;51.070;14.064;2024-01-15T12:18:14;96553.44;;;0.86
73685;BMP280;61985;51.070;14.064;2024-01-15T12:21:45;96542.94;;;1.02
73685;BMP280;61985;51.070;14.064;2024-01-15T12:24:27;96550.91;;;1.02
73685;BMP280;61985;51.070;14.064;2024-01-15T12:27:36;96543.38;;;0.97
73685;BMP280;61985;51.070;14.064;2024-01-15T12:40:55;96562.66;;;0.78
73685;BMP280;61985;51.070;14.064;2024-01-15T14:02:25;96567.28;;;-0.08
73685;BMP280;61985;51.070;14.064;2024-01-15T14:09:13;96572.72;;;-0.19
73685;BMP280;61985;51.070;14.064;2024-01-15T14:12:21;96588.25;;;-0.21
73685;BMP280;61985;51.070;14.064;2024-01-15T14:14:58;96587.91;;;-0.23
73685;BMP280;61985;51.070;14.064;2024-01-15T15:07:39;96633.06;;;-0.83
73685;BMP280;61985;51.070;14.064;2024-01-15T15:26:45;96643.22;;;-1.27
73685;BMP280;61985;51.070;14.064;2024-01-15T15:29:10;96648.09;;;-1.25
73685;BMP280;61985;51.070;14.064;2024-01-15T15:31:36;96642.44;;;-1.27
73685;BMP280;61985;51.070;14.064;2024-01-15T15:34:01;96645.06;;;-1.27
73685;BMP280;61985;51.070;14.064;2024-01-15T15:36:27;96650.00;;;-1.29
73685;BMP280;61985;51.070;14.064;2024-01-15T15:38:53;96647.00;;;-1.31
73685;BMP280;61985;51.070;14.064;2024-01-15T15:41:20;96653.78;;;-1.30
73685;BMP280;61985;51.070;14.064;2024-01-15T15:43:46;96652.66;;;-1.29
73685;BMP280;61985;51.070;14.064;2024-01-15T15:46:12;96650.41;;;-1.31
73685;BMP280;61985;51.070;14.064;2024-01-15T15:48:37;96654.59;;;-1.33
73685;BMP280;61985;51.070;14.064;2024-01-15T15:51:02;96662.88;;;-1.31
73685;BMP280;61985;51.070;14.064;2024-01-15T15:53:29;96659.84;;;-1.30
73685;BMP280;61985;51.070;14.064;2024-01-15T15:55:54;96661.69;;;-1.30
73685;BMP280;61985;51.070;14.064;2024-01-15T15:58:19;96668.13;;;-1.28
73685;BMP280;61985;51.070;14.064;2024-01-15T16:00:45;96665.84;;;-1.29
73685;BMP280;61985;51.070;14.064;2024-01-15T16:03:10;96671.13;;;-1.29
73685;BMP280;61985;51.070;14.064;2024-01-15T16:05:36;96671.88;;;-1.29
73685;BMP280;61985;51.070;14.064;2024-01-15T16:08:01;96678.72;;;-1.31
73685;BMP280;61985;51.070;14.064;2024-01-15T16:10:28;96671.91;;;-1.36
73685;BMP280;61985;51.070;14.064;2024-01-15T16:12:53;96677.16;;;-1.29
73685;BMP280;61985;51.070;14.064;2024-01-15T16:15:23;96681.69;;;-1.26
73685;BMP280;61985;51.070;14.064;2024-01-15T16:17:49;96671.09;;;-1.22
73685;BMP280;61985;51.070;14.064;2024-01-15T16:20:19;96685.41;;;-1.16
73685;BMP280;61985;51.070;14.064;2024-01-15T16:22:45;96688.78;;;-1.15
73685;BMP280;61985;51.070;14.064;2024-01-15T16:25:10;96691.41;;;-1.08
73685;BMP280;61985;51.070;14.064;2024-01-15T16:27:36;96696.31;;;-1.06
73685;BMP280;61985;51.070;14.064;2024-01-15T16:30:03;96696.66;;;-1.04
73685;BMP280;61985;51.070;14.064;2024-01-15T16:32:28;96689.84;;;-1.02
73685;BMP280;61985;51.070;14.064;2024-01-15T16:34:54;96699.25;;;-1.01
73685;BMP280;61985;51.070;14.064;2024-01-15T16:37:19;96691.38;;;-1.04
73685;BMP280;61985;51.070;14.064;2024-01-15T16:39:44;96689.84;;;-1.02
73685;BMP280;61985;51.070;14.064;2024-01-15T16:42:10;96689.06;;;-0.99
73685;BMP280;61985;51.070;14.064;2024-01-15T16:44:37;96689.44;;;-0.97
73685;BMP280;61985;51.070;14.064;2024-01-15T16:47:03;96679.59;;;-0.96
73685;BMP280;61985;51.070;14.064;2024-01-15T16:49:29;96680.72;;;-0.94
73685;BMP280;61985;51.070;14.064;2024-01-15T16:51:54;96685.97;;;-0.86
73685;BMP280;61985;51.070;14.064;2024-01-15T16:54:20;96680.28;;;-0.85
73685;BMP280;61985;51.070;14.064;2024-01-15T16:56:46;96680.34;;;-0.92
73685;BMP280;61985;51.070;14.064;2024-01-15T16:59:11;96670.97;;;-1.00
73685;BMP280;61985;51.070;14.064;2024-01-15T17:01:37;96675.13;;;-1.03
73685;BMP280;61985;51.070;14.064;2024-01-15T17:04:02;96673.66;;;-1.08
73685;BMP280;61985;51.070;14.064;2024-01-15T17:06:29;96685.34;;;-1.09
73685;BMP280;61985;51.070;14.064;2024-01-15T17:08:54;96686.09;;;-1.04
73685;BMP280;61985;51.070;14.064;2024-01-15T17:11:20;96684.59;;;-1.09
73685;BMP280;61985;51.070;14.064;2024-01-15T17:13:45;96687.63;;;-1.11
73685;BMP280;61985;51.070;14.064;2024-01-15T17:16:11;96698.94;;;-1.10
73685;BMP280;61985;51.070;14.064;2024-01-15T17:18:36;96698.56;;;-1.09
73685;BMP280;61985;51.070;14.064;2024-01-15T17:21:01;96690.59;;;-1.01
73685;BMP280;61985;51.070;14.064;2024-01-15T17:23:27;96688.34;;;-1.03
73685;BMP280;61985;51.070;14.064;2024-01-15T17:25:53;96697.06;;;-1.10
73685;BMP280;61985;51.070;14.064;2024-01-15T17:28:18;96701.97;;;-1.08
73685;BMP280;61985;51.070;14.064;2024-01-15T17:30:44;96705.00;;;-1.13
73685;BMP280;61985;51.070;14.064;2024-01-15T17:33:10;96714.84;;;-1.14
73685;BMP280;61985;51.070;14.064;2024-01-15T17:35:36;96712.53;;;-1.12
73685;BMP280;61985;51.070;14.064;2024-01-15T17:38:01;96713.31;;;-1.15
73685;BMP280;61985;51.070;14.064;2024-01-15T17:40:26;96710.28;;;-1.10
73685;BMP280;61985;51.070;14.064;2024-01-15T17:42:52;96707.66;;;-1.13
73685;BMP280;61985;51.070;14.064;2024-01-15T17:45:17;96720.84;;;-1.10
73685;BMP280;61985;51.070;14.064;2024-01-15T17:47:44;96715.19;;;-1.12
73685;BMP280;61985;51.070;14.064;2024-01-15T17:50:10;96711.06;;;-1.13
73685;BMP280;61985;51.070;14.064;2024-01-15T17:52:35;96714.84;;;-1.14
73685;BMP280;61985;51.070;14.064;2024-01-15T17:55:01;96717.47;;;-1.14
73685;BMP280;61985;51.070;14.064;2024-01-15T17:57:28;96726.91;;;-1.13
73685;BMP280;61985;51.070;14.064;2024-01-15T17:59:53;96726.16;;;-1.13
73685;BMP280;61985;51.070;14.064;2024-01-15T18:02:19;96739.31;;;-1.06
73685;BMP280;61985;51.070;14.064;2024-01-15T18:04:44;96727.63;;;-1.05
73685;BMP280;61985;51.070;14.064;2024-01-15T18:07:09;96737.81;;;-1.03
73685;BMP280;61985;51.070;14.064;2024-01-15T18:09:35;96729.09;;;-1.04
73685;BMP280;61985;51.070;14.064;2024-01-15T18:12:00;96729.88;;;-1.03
73685;BMP280;61985;51.070;14.064;2024-01-15T18:14:26;96734.38;;;-0.97
73685;BMP280;61985;51.070;14.064;2024-01-15T18:16:53;96740.38;;;-0.93
73685;BMP280;61985;51.070;14.064;2024-01-15T18:19:18;96738.53;;;-0.96
73685;BMP280;61985;51.070;14.064;2024-01-15T18:21:43;96744.50;;;-0.92
73685;BMP280;61985;51.070;14.064;2024-01-15T18:24:09;96740.38;;;-0.93
73685;BMP280;61985;51.070;14.064;2024-01-15T18:26:34;96749.09;;;-0.96
73685;BMP280;61985;51.070;14.064;2024-01-15T18:29:01;96745.69;;;-0.93
73685;BMP280;61985;51.070;14.064;2024-01-15T18:31:26;96762.69;;;-0.97
73685;BMP280;61985;51.070;14.064;2024-01-15T18:33:52;96754.72;;;-0.94
73685;BMP280;61985;51.070;14.064;2024-01-15T18:36:17;96746.81;;;-0.94
73685;BMP280;61985;51.070;14.064;2024-01-15T18:38:44;96745.69;;;-0.93
73685;BMP280;61985;51.070;14.064;2024-01-15T18:41:19;96755.47;;;-0.93
73685;BMP280;61985;51.070;14.064;2024-01-15T18:43:45;96753.59;;;-0.93
73685;BMP280;61985;51.070;14.064;2024-01-15T18:46:10;96749.81;;;-0.92
73685;BMP280;61985;51.070;14.064;2024-01-15T18:48:36;96773.97;;;-0.90
73685;BMP280;61985;51.070;14.064;2024-01-15T18:51:01;96767.91;;;-0.90
73685;BMP280;61985;51.070;14.064;2024-01-15T18:53:27;96766.78;;;-0.89
73685;BMP280;61985;51.070;14.064;2024-01-15T18:55:52;96773.59;;;-0.88
73685;BMP280;61985;51.070;14.064;2024-01-15T18:58:21;96769.78;;;-0.83
73685;BMP280;61985;51.070;14.064;2024-01-15T19:00:46;96775.81;;;-0.83
73685;BMP280;61985;51.070;14.064;2024-01-15T19:03:12;96777.34;;;-0.85
73685;BMP280;61985;51.070;14.064;2024-01-15T19:05:38;96784.56;;;-0.93
73685;BMP280;61985;51.070;14.064;2024-01-15T19:08:04;96774.03;;;-1.00
73685;BMP280;61985;51.070;14.064;2024-01-15T19:10:29;96774.03;;;-1.00
73685;BMP280;61985;51.070;14.064;2024-01-15T19:12:55;96775.94;;;-1.04
73685;BMP280;61985;51.070;14.064;2024-01-15T19:15:20;96783.47;;;-1.03
73685;BMP280;61985;51.070;14.064;2024-01-15T19:17:46;96769.16;;;-1.05
73685;BMP280;61985;51.070;14.064;2024-01-15T19:20:13;96776.72;;;-1.08
73685;BMP280;61985;51.070;14.064;2024-01-15T19:22:39;96778.22;;;-1.06
73685;BMP280;61985;51.070;14.064;2024-01-15T19:25:05;96782.78;;;-1.11
73685;BMP280;61985;51.070;14.064;2024-01-15T19:27:30;96787.28;;;-1.08
73685;BMP280;61985;51.070;14.064;2024-01-15T19:29:56;96792.22;;;-1.10
73685;BMP280;61985;51.070;14.064;2024-01-15T19:32:21;96796.34;;;-1.09
73685;BMP280;61985;51.070;14.064;2024-01-15T19:34:47;96783.50;;;-1.06
73685;BMP280;61985;51.070;14.064;2024-01-15T19:37:13;96798.63;;;-1.11
73685;BMP280;61985;51.070;14.064;2024-01-15T19:39:38;96792.59;;;-1.11
73685;BMP280;61985;51.070;14.064;2024-01-15T19:42:04;96803.56;;;-1.13
73685;BMP280;61985;51.070;14.064;2024-01-15T19:44:30;96789.19;;;-1.08
73685;BMP280;61985;51.070;14.064;2024-01-15T19:46:55;96799.75;;;-1.08
73685;BMP280;61985;51.070;14.064;2024-01-15T19:49:21;96797.09;;;-1.12
73685;BMP280;61985;51.070;14.064;2024-01-15T19:51:47;96798.63;;;-1.11
73685;BMP280;61985;51.070;14.064;2024-01-15T19:54:12;96807.69;;;-1.12
73685;BMP280;61985;51.070;14.064;2024-01-15T19:56:38;96807.69;;;-1.12
73685;BMP280;61985;51.070;14.064;2024-01-15T19:59:04;96797.88;;;-1.11
73685;BMP280;61985;51.070;14.064;2024-01-15T20:01:34;96812.97;;;-1.12
73685;BMP280;61985;51.070;14.064;2024-01-15T20:03:59;96814.88;;;-1.12
73685;BMP280;61985;51.070;14.064;2024-01-15T20:06:25;96819.03;;;-1.15
73685;BMP280;61985;51.070;14.064;2024-01-15T20:08:50;96809.22;;;-1.14
73685;BMP280;61985;51.070;14.064;2024-01-15T20:11:17;96805.06;;;-1.15
73685;BMP280;61985;51.070;14.064;2024-01-15T20:13:43;96819.78;;;-1.14
73685;BMP280;61985;51.070;14.064;2024-01-15T20:16:10;96811.88;;;-1.14
73685;BMP280;61985;51.070;14.064;2024-01-15T20:18:35;96821.66;;;-1.15
73685;BMP280;61985;51.070;14.064;2024-01-15T20:21:01;96826.22;;;-1.15
73685;BMP280;61985;51.070;14.064;2024-01-15T20:23:28;96834.09;;;-1.08
73685;BMP280;61985;51.070;14.064;2024-01-15T20:25:55;96831.84;;;-1.10
73685;BMP280;61985;51.070;14.064;2024-01-15T20:28:20;96834.84;;;-1.08
73685;BMP280;61985;51.070;14.064;2024-01-15T20:30:46;96837.84;;;-1.05
73685;BMP280;61985;51.070;14.064;2024-01-15T20:33:11;96836.75;;;-1.08
73685;BMP280;61985;51.070;14.064;2024-01-15T20:35:36;96846.56;;;-1.09
73685;BMP280;61985;51.070;14.064;2024-01-15T20:38:02;96849.97;;;-1.12
73685;BMP280;61985;51.070;14.064;2024-01-15T20:40:27;96845.41;;;-1.04
73685;BMP280;61985;51.070;14.064;2024-01-15T20:42:53;96851.84;;;-1.09
73685;BMP280;61985;51.070;14.064;2024-01-15T20:45:18;96847.72;;;-1.10
73685;BMP280;61985;51.070;14.064;2024-01-15T20:47:44;96855.63;;;-1.06
73685;BMP280;61985;51.070;14.064;2024-01-15T20:50:10;96848.81;;;-1.03
73685;BMP280;61985;51.070;14.064;2024-01-15T20:52:35;96852.59;;;-1.04
73685;BMP280;61985;51.070;14.064;2024-01-15T20:55:01;96852.56;;;-0.97
73685;BMP280;61985;51.070;14.064;2024-01-15T20:57:27;96859.72;;;-0.94
73685;BMP280;61985;51.070;14.064;2024-01-15T20:59:52;96855.16;;;-0.90
73685;BMP280;61985;51.070;14.064;2024-01-15T21:02:18;96865.72;;;-0.90
73685;BMP280;61985;51.070;14.064;2024-01-15T21:04:43;96859.31;;;-0.89
73685;BMP280;61985;51.070;14.064;2024-01-15T21:07:09;96874.06;;;-0.92
73685;BMP280;61985;51.070;14.064;2024-01-15T21:09:34;96859.72;;;-0.98
73685;BMP280;61985;51.070;14.064;2024-01-15T21:12:01;96865.78;;;-0.97
73685;BMP280;61985;51.070;14.064;2024-01-15T21:14:28;96866.56;;;-1.00
73685;BMP280;61985;51.070;14.064;2024-01-15T21:16:54;96863.53;;;-1.02
73685;BMP280;61985;51.070;14.064;2024-01-15T21:19:19;96874.09;;;-0.99
73685;BMP280;61985;51.070;14.064;2024-01-15T21:21:46;96874.84;;;-0.98
73685;BMP280;61985;51.070;14.064;2024-01-15T21:24:13;96889.94;;;-0.95
73685;BMP280;61985;51.070;14.064;2024-01-15T21:26:38;96886.53;;;-0.96
73685;BMP280;61985;51.070;14.064;2024-01-15T21:29:04;96883.13;;;-0.93
73685;BMP280;61985;51.070;14.064;2024-01-15T21:31:29;96887.69;;;-0.97
73685;BMP280;61985;51.070;14.064;2024-01-15T21:33:55;96890.72;;;-1.02
73685;BMP280;61985;51.070;14.064;2024-01-15T21:36:21;96897.53;;;-1.04
73685;BMP280;61985;51.070;14.064;2024-01-15T21:38:47;96904.34;;;-1.11
73685;BMP280;61985;51.070;14.064;2024-01-15T21:41:12;96899.78;;;-1.10
73685;BMP280;61985;51.070;14.064;2024-01-15T21:43:38;96892.63;;;-1.10
73685;BMP280;61985;51.070;14.064;2024-01-15T21:46:04;96891.47;;;-1.09
73685;BMP280;61985;51.070;14.064;2024-01-15T21:48:30;96894.50;;;-1.03
73685;BMP280;61985;51.070;14.064;2024-01-15T21:50:55;96912.97;;;-0.99
73685;BMP280;61985;51.070;14.064;2024-01-15T21:53:21;96909.22;;;-0.98
73685;BMP280;61985;51.070;14.064;2024-01-15T21:55:46;96922.03;;;-0.97
73685;BMP280;61985;51.070;14.064;2024-01-15T21:58:12;96918.66;;;-0.97
73685;BMP280;61985;51.070;14.064;2024-01-15T22:00:38;96924.66;;;-0.93
73685;BMP280;61985;51.070;14.064;2024-01-15T22:03:04;96932.22;;;-0.92
73685;BMP280;61985;51.070;14.064;2024-01-15T22:05:29;96936.00;;;-0.93
73685;BMP280;61985;51.070;14.064;2024-01-15T22:07:55;96931.09;;;-0.94
73685;BMP280;61985;51.070;14.064;2024-01-15T22:10:20;96937.50;;;-0.88
73685;BMP280;61985;51.070;14.064;2024-01-15T22:12:46;96950.34;;;-0.90
73685;BMP280;61985;51.070;14.064;2024-01-15T22:15:11;96960.16;;;-0.87
73685;BMP280;61985;51.070;14.064;2024-01-15T22:17:38;96956.75;;;-0.84
73685;BMP280;61985;51.070;14.064;2024-01-15T22:20:05;96963.19;;;-0.85
73685;BMP280;61985;51.070;14.064;2024-01-15T22:22:30;96959.41;;;-0.87
73685;BMP280;61985;51.070;14.064;2024-01-15T22:24:58;96961.28;;;-0.92
73685;BMP280;61985;51.070;14.064;2024-01-15T22:27:23;96968.88;;;-0.97
73685;BMP280;61985;51.070;14.064;2024-01-15T22:29:49;96975.66;;;-0.96
73685;BMP280;61985;51.070;14.064;2024-01-15T22:32:16;96979.81;;;-0.95
73685;BMP280;61985;51.070;14.064;2024-01-15T22:34:43;96982.81;;;-0.93
73685;BMP280;61985;51.070;14.064;2024-01-15T22:37:09;96985.09;;;-0.95
73685;BMP280;61985;51.070;14.064;2024-01-15T22:39:34;96982.84;;;-0.97
73685;BMP280;61985;51.070;14.064;2024-01-15T22:42:00;96988.13;;;-0.97
73685;BMP280;61985;51.070;14.064;2024-01-15T22:44:26;96979.06;;;-0.96
73685;BMP280;61985;51.070;14.064;2024-01-15T22:46:51;96987.38;;;-0.97
73685;BMP280;61985;51.070;14.064;2024-01-15T22:49:17;96993.41;;;-0.93
73685;BMP280;61985;51.070;14.064;2024-01-15T22:51:43;96997.94;;;-0.97
73685;BMP280;61985;51.070;14.064;2024-01-15T22:54:09;97005.13;;;-0.94
73685;BMP280;61985;51.070;14.064;2024-01-15T22:56:35;97008.13;;;-0.88
73685;BMP280;61985;51.070;14.064;2024-01-15T22:59:01;97018.69;;;-0.85
73685;BMP280;61985;51.070;14.064;2024-01-15T23:01:26;97021.72;;;-0.86
73685;BMP280;61985;51.070;14.064;2024-01-15T23:03:52;97033.44;;;-0.91
73685;BMP280;61985;51.070;14.064;2024-01-15T23:06:18;97027.41;;;-0.95
73685;BMP280;61985;51.070;14.064;2024-01-15T23:08:46;97021.00;;;-1.01
73685;BMP280;61985;51.070;14.064;2024-01-15T23:11:12;97020.59;;;-1.00
73685;BMP280;61985;51.070;14.064;2024-01-15T23:13:43;97023.25;;;-1.00
73685;BMP280;61985;51.070;14.064;2024-01-15T23:16:10;97034.94;;;-1.01
73685;BMP280;61985;51.070;14.064;2024-01-15T23:18:42;97036.47;;;-1.03
73685;BMP280;61985;51.070;14.064;2024-01-15T23:21:09;97033.44;;;-1.05
73685;BMP280;61985;51.070;14.064;2024-01-15T23:23:35;97041.00;;;-1.04
73685;BMP280;61985;51.070;14.064;2024-01-15T23:26:02;97045.16;;;-1.03
73685;BMP280;61985;51.070;14.064;2024-01-15T23:28:28;97041.38;;;-1.05
73685;BMP280;61985;51.070;14.064;2024-01-15T23:30:54;97042.13;;;-1.09
73685;BMP280;61985;51.070;14.064;2024-01-15T23:33:20;97044.03;;;-1.13
73685;BMP280;61985;51.070;14.064;2024-01-15T23:35:46;97048.56;;;-1.13
73685;BMP280;61985;51.070;14.064;2024-01-15T23:38:12;97058.75;;;-1.15
73685;BMP280;61985;51.070;14.064;2024-01-15T23:40:37;97067.44;;;-1.15
73685;BMP280;61985;51.070;14.064;2024-01-15T23:43:03;97067.81;;;-1.13
73685;BMP280;61985;51.070;14.064;2024-01-15T23:45:29;97067.44;;;-1.11
73685;BMP280;61985;51.070;14.064;2024-01-15T23:47:55;97073.09;;;-1.09
73685;BMP280;61985;51.070;14.064;2024-01-15T23:50:20;97082.16;;;-1.10
73685;BMP280;61985;51.070;14.064;2024-01-15T23:52:46;97059.16;;;-1.10
73685;BMP280;61985;51.070;14.064;2024-01-15T23:55:12;97084.03;;;-1.07
73685;BMP280;61985;51.070;14.064;2024-01-15T23:57:38;97094.25;;;-1.13
